Aeroporto :
LOGIN :

Iscrizione | Disclaimer

   EN    FR    IT 

 










Sommario :    VFR   VFR Marginale   IFR   IFR Intensivo   IFR Molto Intensivo
Visibilità : 
Base nubi : 
>= 8 km
>= 3000ft
5 / 8 km
1000 / 3000 ft
1500m / 5 km
500 / 1000 ft
800 / 1500m
200 / 500 ft
< 800m
< 200 ft
Simboli :   Temporali  Nebbia  Neve Forte  Precipitazioni Forti  Vento > 20 kt
SIGMETs :   Varie  Temporali  Ghiacco  Turbolenza  Onda orograficha  Ceneri Vulcaniche






- Altitudine del aeroporto : 52 ft
- Codice IATA : RNN


EKRN - Bornholm Ronne

ULTIMO METAR :
  • 180420Z AUTO 24023KT 9999 SCT014/// BKN071/// 06/05 Q1007

METARs OBSOLETI :
  • 180350Z AUTO 24019G29KT 9999 OVC016/// 06/05 Q1007
  • 180320Z AUTO 24020KT 9999 BKN018/// OVC035/// 06/05 Q1007
  • 180250Z AUTO 24018KT 9999 BKN029/// OVC065/// 06/05 Q1007
  • 180220Z AUTO 24017KT 9999 FEW024/// OVC043/// 06/05 Q1007
  • 180150Z AUTO 24016KT 9999 BKN024/// OVC051/// 06/05 Q1007

Previsioni scadute.



MetMap, La meteo Aeronautica in un colpo d'occhio ! - Copyright ORBIFLY Dicembre 2007 - Disclaimer

ORBIFLY MET'MAP TEAM :

Programmazione e sviluppo : Alexandra Zaïnal
Concezione : Baudouin d'Aumeries
Aiuto per la programmazione : Marc-Olivier Méhu
Supporto tecnico e logistico : Manuel Goepfert
Aiuto per la traduzione : Arnaldo La Scala

Contatto : metmap@orbifly.com




FONTI E CREDITI :

   NOAA